.
WxDataArchive / Data Records for 2008-03-19
2008-03-18 March 2008 2008-03-20

Data Records for Wednesday, 19 March 2008

Time	Temp	Chill	HIndex	Humid	Dewpt	 Wind 	HiWind	WindDir	Rain 	Barom 
-----	----	-----	------	-----	-----	------	------	-------	-----	----- 
00:00	45.5	45.5	45.5	96	44.4	1	4	338	0.00	29.668 
00:05	45.1	45.1	45.1	96	44.0	1	4	338	0.00	29.666 
00:10	44.8	44.8	44.8	96	43.7	2	6	0	0.01	29.657 
00:15	44.3	44.3	44.3	96	43.2	1	3	338	0.00	29.652 
00:20	44.1	44.1	44.1	96	43.0	1	5	338	0.00	29.650 
00:25	43.8	43.8	43.8	96	42.7	2	7	0	0.00	29.648 
00:30	43.6	43.6	43.6	96	42.5	1	4	270	0.00	29.652 
00:35	43.3	43.3	43.3	96	42.2	1	5	315	0.00	29.654 
00:40	43.2	43.2	43.2	96	42.1	1	3	338	0.00	29.654 
00:45	43.1	43.1	43.1	96	42.0	1	3	338	0.01	29.655 
00:50	42.8	42.8	42.8	95	41.5	2	6	338	0.00	29.654 
00:55	42.6	42.6	42.6	95	41.3	1	5	338	0.00	29.654 
01:00	42.5	42.5	42.5	95	41.2	1	3	0	0.01	29.653 
01:05	42.3	42.3	42.3	95	41.0	1	5	292	0.00	29.651 
01:10	42.2	42.2	42.2	95	40.9	2	6	338	0.00	29.652 
01:15	42.1	42.1	42.1	95	40.8	2	7	0	0.00	29.646 
01:20	41.9	41.9	41.9	95	40.6	1	6	0	0.00	29.646 
01:25	41.8	41.8	41.8	95	40.5	1	5	292	0.01	29.650 
01:30	41.6	41.6	41.6	95	40.3	1	3	0	0.00	29.651 
01:35	41.3	41.3	41.3	95	40.0	0	3	315	0.00	29.652 
01:40	41.2	41.2	41.2	94	39.6	1	6	338	0.01	29.654 
01:45	41.1	41.1	41.1	95	39.8	1	4	270	0.00	29.654 
01:50	40.9	40.9	40.9	94	39.3	1	5	315	0.00	29.649 
01:55	40.8	40.8	40.8	94	39.2	1	4	292	0.01	29.648 
02:00	40.6	40.6	40.6	94	39.0	1	4	0	0.00	29.646 
02:05	40.5	40.5	40.5	94	38.9	1	3	0	0.01	29.649 
02:10	40.5	40.5	40.5	94	38.9	1	2	338	0.00	29.648 
02:15	40.3	40.3	40.3	94	38.7	1	4	338	0.01	29.650 
02:20	40.3	40.3	40.3	95	39.0	1	4	338	0.01	29.649 
02:25	40.2	40.2	40.2	94	38.6	1	4	22	0.00	29.644 
02:30	40.2	40.2	40.2	95	38.9	0	3	22	0.01	29.640 
02:35	40.1	40.1	40.1	95	38.8	0	2	292	0.00	29.639 
02:40	40.1	40.1	40.1	95	38.8	0	2	292	0.01	29.635 
02:45	39.9	39.9	39.9	95	38.6	1	3	292	0.00	29.634 
02:50	39.9	39.9	39.9	95	38.6	1	4	292	0.00	29.633 
02:55	39.8	39.8	39.8	95	38.5	1	3	292	0.01	29.634 
03:00	39.8	39.8	39.8	95	38.5	1	3	292	0.00	29.630 
03:05	39.6	39.6	39.6	95	38.3	1	5	292	0.00	29.628 
03:10	39.6	39.6	39.6	95	38.3	1	3	315	0.01	29.628 
03:15	39.5	39.5	39.5	95	38.2	0	3	0	0.00	29.623 
03:20	39.5	39.5	39.5	95	38.2	1	3	0	0.00	29.622 
03:25	39.3	39.3	39.3	95	38.0	1	5	292	0.00	29.622 
03:30	39.2	39.2	39.2	95	37.9	1	4	315	0.00	29.617 
03:35	39.2	39.2	39.2	95	37.9	1	4	292	0.01	29.619 
03:40	39.1	39.1	39.1	95	37.8	1	5	292	0.00	29.620 
03:45	39.1	39.1	39.1	95	37.8	1	3	338	0.00	29.617 
03:50	38.9	38.9	38.9	95	37.6	1	3	0	0.01	29.618 
03:55	38.9	38.9	38.9	95	37.6	1	3	0	0.00	29.620 
04:00	38.8	38.8	38.8	95	37.5	1	3	315	0.00	29.622 
04:05	38.8	38.8	38.8	95	37.5	1	4	0	0.01	29.624 
04:10	38.6	38.6	38.6	95	37.3	1	3	315	0.00	29.624 
04:15	38.5	38.5	38.5	95	37.2	0	3	292	0.00	29.626 
04:20	38.5	38.5	38.5	95	37.2	0	4	270	0.01	29.629 
04:25	38.5	38.5	38.5	95	37.2	1	3	270	0.00	29.633 
04:30	38.5	38.5	38.5	95	37.2	1	4	292	0.01	29.637 
04:35	38.3	38.3	38.3	95	37.0	1	4	270	0.00	29.639 
04:40	38.2	38.2	38.2	95	36.9	1	3	338	0.01	29.639 
04:45	38.2	38.2	38.2	95	36.9	1	4	292	0.01	29.640 
04:50	38.0	38.0	38.0	95	36.7	2	6	270	0.00	29.641 
04:55	37.9	37.9	37.9	95	36.6	1	3	338	0.01	29.644 
05:00	37.9	37.9	37.9	95	36.6	1	4	292	0.00	29.652 
05:05	37.8	37.8	37.8	95	36.5	1	5	292	0.01	29.656 
05:10	37.6	37.6	37.6	95	36.3	2	5	292	0.00	29.657 
05:15	37.6	37.6	37.6	95	36.3	1	4	292	0.00	29.658 
05:20	37.5	37.5	37.5	95	36.2	2	5	292	0.01	29.660 
05:25	37.3	37.3	37.3	95	36.0	1	7	315	0.00	29.662 
05:30	37.3	37.3	37.3	95	36.0	1	3	315	0.00	29.666 
05:35	37.2	37.2	37.2	95	35.9	1	3	315	0.01	29.672 
05:40	37.2	37.2	37.2	94	35.6	1	4	338	0.00	29.672 
05:45	37.0	37.0	37.0	94	35.4	2	7	315	0.01	29.668 
05:50	36.9	36.9	36.9	94	35.3	1	4	270	0.01	29.671 
05:55	36.8	36.8	36.8	94	35.2	0	3	270	0.01	29.666 
06:00	36.8	36.8	36.8	94	35.2	1	3	338	0.00	29.659 
06:05	36.6	36.6	36.6	94	35.0	1	7	270	0.01	29.660 
06:10	36.6	36.6	36.6	95	35.3	1	3	338	0.00	29.673 
06:15	36.6	36.6	36.6	95	35.3	1	4	338	0.01	29.674 
06:20	36.6	36.6	36.6	95	35.3	0	2	315	0.00	29.671 
06:25	36.5	36.5	36.5	95	35.2	1	2	315	0.01	29.659 
06:30	36.5	36.5	36.5	95	35.2	1	5	315	0.00	29.675 
06:35	36.5	36.5	36.5	95	35.2	1	5	292	0.00	29.685 
06:40	36.5	36.5	36.5	95	35.2	0	2	292	0.01	29.688 
06:45	36.3	36.3	36.3	95	35.0	0	3	315	0.00	29.677 
06:50	36.3	36.3	36.3	95	35.0	1	5	270	0.01	29.677 
06:55	36.3	36.3	36.3	95	35.0	0	2	338	0.00	29.667 
07:00	36.2	36.2	36.2	95	34.9	0	2	338	0.01	29.673 
07:05	36.2	36.2	36.2	95	34.9	1	3	315	0.00	29.669 
07:10	36.2	36.2	36.2	95	34.9	1	5	338	0.01	29.665 
07:15	36.0	36.0	36.0	95	34.7	1	3	338	0.00	29.649 
07:20	36.0	36.0	36.0	95	34.7	1	2	315	0.00	29.661 
07:25	36.0	36.0	36.0	95	34.7	1	3	338	0.00	29.661 
07:30	36.0	36.0	36.0	95	34.7	1	4	0	0.00	29.661 
07:35	36.0	36.0	36.0	95	34.7	1	2	338	0.00	29.673 
07:40	36.0	36.0	36.0	95	34.7	0	3	270	0.00	29.673 
07:45	36.0	36.0	36.0	95	34.7	0	4	45	0.00	29.666 
07:50	36.0	36.0	36.0	95	34.7	1	3	0	0.01	29.658 
07:55	36.0	36.0	36.0	95	34.7	0	5	338	0.00	29.648 
08:00	36.0	36.0	36.0	95	34.7	1	2	338	0.00	29.656 
08:05	36.2	36.2	36.2	95	34.9	0	2	68	0.00	29.663 
08:10	36.3	36.3	36.3	95	35.0	0	1	68	0.00	29.661 
08:15	36.2	36.2	36.2	95	34.9	1	4	338	0.00	29.658 
08:20	36.2	36.2	36.2	95	34.9	1	3	338	0.00	29.662 
08:25	36.3	36.3	36.3	95	35.0	1	3	338	0.00	29.674 
08:30	36.3	36.3	36.3	95	35.0	0	2	22	0.00	29.677 
08:35	36.3	36.3	36.3	95	35.0	1	4	338	0.00	29.673 
08:40	36.3	36.3	36.3	95	35.0	1	3	22	0.00	29.667 
08:45	36.3	36.3	36.3	94	34.7	1	3	0	0.00	29.677 
08:50	36.3	36.3	36.3	94	34.7	1	3	292	0.00	29.679 
08:55	36.3	36.3	36.3	94	34.7	1	6	338	0.00	29.674 
09:00	36.3	36.3	36.3	94	34.7	1	4	338	0.00	29.674 
09:05	36.5	36.5	36.5	94	34.9	1	3	338	0.00	29.675 
09:10	36.3	36.3	36.3	94	34.7	1	5	338	0.00	29.682 
09:15	36.3	36.3	36.3	94	34.7	1	6	315	0.00	29.677 
09:20	36.3	36.3	36.3	94	34.7	1	4	315	0.00	29.690 
09:25	36.2	36.2	36.2	94	34.6	1	5	315	0.00	29.684 
09:30	36.2	36.2	36.2	94	34.6	1	2	0	0.00	29.684 
09:35	36.2	36.2	36.2	94	34.6	1	3	315	0.00	29.692 
09:40	36.2	36.2	36.2	94	34.6	0	2	338	0.00	29.695 
09:45	36.2	36.2	36.2	94	34.6	2	5	315	0.00	29.696 
09:50	36.2	36.2	36.2	94	34.6	1	6	22	0.00	29.700 
09:55	36.2	36.2	36.2	94	34.6	1	4	0	0.00	29.695 
10:00	36.2	36.2	36.2	94	34.6	1	4	338	0.00	29.708 
10:05	36.2	36.2	36.2	94	34.6	1	5	22	0.00	29.713 
10:10	36.2	36.2	36.2	93	34.4	1	3	338	0.00	29.712 
10:15	36.3	36.3	36.3	93	34.5	1	4	0	0.00	29.719 
10:20	36.5	36.5	36.5	93	34.7	1	3	315	0.00	29.722 
10:25	36.5	36.5	36.5	93	34.7	1	4	270	0.00	29.721 
10:30	36.3	36.3	36.3	92	34.2	1	4	338	0.00	29.728 
10:35	36.3	36.3	36.3	92	34.2	1	3	338	0.00	29.725 
10:40	36.2	36.2	36.2	92	34.1	1	4	338	0.00	29.725 
10:45	36.2	36.2	36.2	92	34.1	1	4	338	0.00	29.719 
10:50	36.3	36.3	36.3	92	34.2	1	5	0	0.00	29.725 
10:55	36.3	36.3	36.3	92	34.2	0	2	0	0.00	29.726 
11:00	36.3	36.3	36.3	91	33.9	1	5	0	0.00	29.713 
11:05	36.5	36.5	36.5	91	34.1	1	4	45	0.00	29.713 
11:10	36.6	36.6	36.6	91	34.2	1	3	0	0.00	29.715 
11:15	36.8	36.8	36.8	90	34.1	1	4	338	0.00	29.715 
11:20	37.0	37.0	37.0	90	34.3	1	3	338	0.00	29.708 
11:25	37.0	37.0	37.0	89	34.1	1	4	22	0.00	29.704 
11:30	37.3	37.3	37.3	89	34.4	1	5	0	0.00	29.712 
11:35	37.5	37.5	37.5	88	34.3	1	4	0	0.00	29.713 
11:40	37.6	37.6	37.6	88	34.4	1	5	338	0.00	29.708 
11:45	37.8	37.8	37.8	86	34.0	1	3	315	0.00	29.714 
11:50	37.9	37.9	37.9	86	34.1	1	3	0	0.00	29.715 
11:55	38.0	38.0	38.0	86	34.2	2	4	338	0.00	29.715 
12:00	38.0	38.0	38.0	85	33.9	1	5	22	0.00	29.715 
12:05	38.0	38.0	38.0	85	33.9	1	5	22	0.00	29.715 
12:10	38.2	38.2	38.2	85	34.1	1	3	22	0.00	29.704 
12:15	38.2	38.2	38.2	84	33.8	1	6	22	0.00	29.705 
12:20	38.3	38.3	38.3	84	33.9	1	3	0	0.00	29.701 
12:25	38.5	38.5	38.5	84	34.1	1	5	0	0.00	29.699 
12:30	38.6	38.6	38.6	83	33.9	2	5	22	0.00	29.689 
12:35	38.6	38.6	38.6	83	33.9	1	4	0	0.00	29.686 
12:40	38.6	38.6	38.6	82	33.6	1	3	338	0.00	29.681 
12:45	38.6	38.6	38.6	83	33.9	1	4	338	0.00	29.671 
12:50	38.6	38.6	38.6	82	33.6	2	9	0	0.00	29.666 
12:55	38.8	38.8	38.8	83	34.1	1	5	22	0.00	29.662 
13:00	38.9	38.9	38.9	83	34.2	1	4	45	0.00	29.654 
13:05	38.6	38.6	38.6	81	33.3	2	4	45	0.00	29.655 
13:10	38.3	38.3	38.3	81	33.0	2	5	0	0.00	29.658 
13:15	38.2	38.2	38.2	82	33.2	2	7	338	0.00	29.656 
13:20	38.2	38.2	38.2	82	33.2	1	5	338	0.00	29.657 
13:25	38.3	38.3	38.3	82	33.3	2	5	0	0.00	29.654 
13:30	38.5	38.5	38.5	82	33.5	2	9	0	0.00	29.640 
13:35	38.5	38.5	38.5	81	33.2	2	7	22	0.00	29.638 
13:40	38.8	38.8	38.8	81	33.5	2	5	22	0.00	29.636 
13:45	38.8	38.8	38.8	81	33.5	1	3	22	0.00	29.644 
13:50	38.6	38.6	38.6	81	33.3	2	6	338	0.00	29.651 
13:55	38.5	38.5	38.5	80	32.9	2	7	338	0.00	29.645 
14:00	38.6	38.6	38.6	81	33.3	1	5	0	0.00	29.646 
14:05	38.6	38.6	38.6	80	33.0	1	4	0	0.00	29.647 
14:10	38.8	38.8	38.8	80	33.2	2	7	0	0.00	29.644 
14:15	38.9	38.9	38.9	81	33.6	1	5	22	0.00	29.643 
14:20	39.1	39.1	39.1	80	33.5	1	3	315	0.00	29.651 
14:25	39.1	39.1	39.1	80	33.5	0	2	22	0.00	29.657 
14:30	39.1	39.1	39.1	79	33.1	1	2	45	0.00	29.662 
14:35	39.2	39.2	39.2	80	33.6	1	3	22	0.00	29.669 
14:40	39.3	39.3	39.3	79	33.3	1	2	45	0.00	29.669 
14:45	39.3	39.3	39.3	78	33.0	1	4	0	0.00	29.669 
14:50	39.3	39.3	39.3	78	33.0	1	3	338	0.00	29.671 
14:55	39.3	39.3	39.3	78	33.0	1	7	0	0.00	29.669 
15:00	39.3	39.3	39.3	77	32.7	1	4	315	0.00	29.670 
15:05	39.5	39.5	39.5	77	32.9	1	9	338	0.00	29.671 
15:10	39.5	39.5	39.5	77	32.9	1	4	22	0.00	29.669 
15:15	39.5	39.5	39.5	77	32.9	1	3	0	0.00	29.669 
15:20	39.5	39.5	39.5	76	32.6	1	4	45	0.00	29.660 
15:25	39.5	39.5	39.5	77	32.9	1	4	22	0.00	29.654 
15:30	39.5	39.5	39.5	77	32.9	0	3	0	0.00	29.668 
15:35	39.5	39.5	39.5	77	32.9	1	5	270	0.00	29.670 
15:40	39.6	39.6	39.6	77	33.0	1	5	338	0.00	29.675 
15:45	39.6	39.6	39.6	77	33.0	1	6	315	0.00	29.683 
15:50	39.6	39.6	39.6	77	33.0	1	5	270	0.00	29.683 
15:55	39.6	39.6	39.6	76	32.7	1	3	338	0.00	29.676 
16:00	39.8	39.8	39.8	75	32.5	1	4	338	0.00	29.670 
16:05	40.1	40.1	40.1	75	32.8	1	3	0	0.00	29.669 
16:10	40.2	40.2	40.2	76	33.3	0	3	45	0.00	29.678 
16:15	40.3	40.3	40.3	75	33.0	1	3	270	0.00	29.681 
16:20	40.5	40.5	40.5	75	33.2	1	4	270	0.00	29.688 
16:25	40.5	40.5	40.5	74	32.9	1	3	315	0.00	29.687 
16:30	40.5	40.5	40.5	74	32.9	1	5	292	0.00	29.687 
16:35	40.5	40.5	40.5	73	32.5	1	5	338	0.00	29.684 
16:40	40.5	40.5	40.5	74	32.9	0	1	315	0.00	29.684 
16:45	40.5	40.5	40.5	73	32.5	1	4	270	0.00	29.685 
16:50	40.5	40.5	40.5	73	32.5	1	5	338	0.00	29.685 
16:55	40.5	40.5	40.5	73	32.5	1	6	270	0.00	29.686 
17:00	40.3	40.3	40.3	73	32.3	2	10	315	0.00	29.687 
17:05	40.3	40.3	40.3	73	32.3	1	4	0	0.00	29.690 
17:10	40.2	40.2	40.2	73	32.2	1	3	0	0.00	29.688 
17:15	40.2	40.2	40.2	73	32.2	1	7	292	0.00	29.690 
17:20	40.2	40.2	40.2	73	32.2	1	3	338	0.00	29.693 
17:25	40.1	40.1	40.1	73	32.2	1	5	338	0.00	29.698 
17:30	40.2	40.2	40.2	73	32.2	1	3	0	0.00	29.702 
17:35	40.2	40.2	40.2	73	32.2	1	5	292	0.00	29.704 
17:40	40.2	40.2	40.2	73	32.2	1	6	315	0.00	29.713 
17:45	40.3	40.3	40.3	72	32.0	2	6	338	0.00	29.718 
17:50	40.3	40.3	40.3	72	32.0	2	3	292	0.00	29.720 
17:55	40.3	40.3	40.3	72	32.0	1	5	292	0.00	29.729 
18:00	40.3	40.3	40.3	72	32.0	1	3	0	0.00	29.734 
18:05	40.3	40.3	40.3	72	32.0	1	2	338	0.00	29.737 
18:10	40.2	40.2	40.2	73	32.2	0	2	315	0.00	29.744 
18:15	40.2	40.2	40.2	73	32.2	1	4	270	0.00	29.749 
18:20	40.2	40.2	40.2	73	32.2	1	5	292	0.00	29.750 
18:25	40.1	40.1	40.1	73	32.2	0	2	0	0.00	29.750 
18:30	40.1	40.1	40.1	73	32.2	0	2	0	0.00	29.753 
18:35	40.1	40.1	40.1	73	32.2	1	2	338	0.00	29.756 
18:40	40.1	40.1	40.1	73	32.2	1	3	315	0.00	29.759 
18:45	39.9	39.9	39.9	74	32.3	2	5	292	0.00	29.763 
18:50	39.6	39.6	39.6	76	32.7	2	6	338	0.00	29.764 
18:55	39.5	39.5	39.5	76	32.6	2	5	338	0.00	29.764 
19:00	39.3	39.3	39.3	77	32.7	1	3	270	0.00	29.767 
19:05	39.2	39.2	39.2	77	32.6	1	3	292	0.00	29.767 
19:10	39.2	39.2	39.2	77	32.6	2	6	292	0.00	29.769 
19:15	39.1	39.1	39.1	77	32.5	2	6	315	0.00	29.768 
19:20	39.1	39.1	39.1	77	32.5	1	8	315	0.00	29.779 
19:25	39.1	39.1	39.1	77	32.5	1	4	315	0.00	29.781 
19:30	38.9	38.9	38.9	77	32.3	1	4	338	0.00	29.781 
19:35	38.8	38.8	38.8	78	32.5	1	4	292	0.00	29.781 
19:40	38.6	38.6	38.6	78	32.3	1	3	292	0.00	29.782 
19:45	38.3	38.3	38.3	79	32.4	1	2	270	0.00	29.783 
19:50	38.0	38.0	38.0	79	32.1	1	6	315	0.00	29.784 
19:55	37.8	37.8	37.8	79	31.9	1	2	315	0.00	29.784 
20:00	37.6	37.6	37.6	80	32.0	1	5	270	0.00	29.790 
20:05	37.3	37.3	37.3	80	31.7	1	3	292	0.00	29.794 
20:10	37.2	37.2	37.2	80	31.6	1	4	270	0.00	29.799 
20:15	37.2	37.2	37.2	80	31.6	1	3	292	0.00	29.803 
20:20	36.9	36.9	36.9	81	31.6	0	2	292	0.00	29.807 
20:25	36.8	36.8	36.8	81	31.5	1	3	338	0.00	29.810 
20:30	36.6	36.6	36.6	80	31.0	1	4	338	0.00	29.813 
20:35	36.6	36.6	36.6	80	31.0	1	4	338	0.00	29.815 
20:40	36.5	36.5	36.5	80	30.9	1	5	292	0.00	29.817 
20:45	36.3	36.3	36.3	80	30.7	1	3	315	0.00	29.817 
20:50	36.2	36.2	36.2	79	30.3	1	4	270	0.00	29.818 
20:55	36.2	36.2	36.2	79	30.3	2	5	292	0.00	29.822 
21:00	36.0	36.0	36.0	78	29.8	1	4	315	0.00	29.823 
21:05	35.9	35.9	35.9	78	29.7	1	4	338	0.00	29.829 
21:10	35.9	35.9	35.9	77	29.4	1	4	270	0.00	29.832 
21:15	35.8	35.8	35.8	77	29.3	1	3	338	0.00	29.835 
21:20	35.6	35.6	35.6	77	29.1	1	3	338	0.00	29.840 
21:25	35.6	35.6	35.6	76	28.8	1	4	315	0.00	29.843 
21:30	35.5	35.5	35.5	76	28.7	1	4	315	0.00	29.847 
21:35	35.5	35.5	35.5	75	28.4	1	6	338	0.00	29.848 
21:40	35.3	35.3	35.3	75	28.2	1	3	292	0.00	29.852 
21:45	35.0	35.0	35.0	75	27.9	1	3	292	0.00	29.855 
21:50	35.0	35.0	35.0	75	27.9	1	5	292	0.00	29.859 
21:55	34.9	34.9	34.9	75	27.8	0	2	315	0.00	29.863 
22:00	34.9	34.9	34.9	75	27.8	1	4	292	0.00	29.865 
22:05	34.9	34.9	34.9	74	27.5	1	3	292	0.00	29.867 
22:10	34.9	34.9	34.9	74	27.5	1	3	338	0.00	29.868 
22:15	34.9	34.9	34.9	73	27.1	1	5	315	0.00	29.874 
22:20	34.7	34.7	34.7	73	26.9	1	4	292	0.00	29.877 
22:25	34.6	34.6	34.6	73	26.9	0	2	292	0.00	29.880 
22:30	34.6	34.6	34.6	73	26.9	1	3	292	0.00	29.881 
22:35	34.4	34.4	34.4	73	26.7	1	3	338	0.00	29.883 
22:40	34.3	34.3	34.3	73	26.6	1	3	248	0.00	29.885 
22:45	34.1	34.1	34.1	73	26.4	0	2	248	0.00	29.888 
22:50	34.0	34.0	34.0	73	26.3	0	2	292	0.00	29.890 
22:55	33.7	33.7	33.7	74	26.3	0	2	270	0.00	29.890 
23:00	33.5	33.5	33.5	74	26.1	0	2	270	0.00	29.894 
23:05	33.5	33.5	33.5	74	26.1	0	2	270	0.00	29.894 
23:10	33.2	33.2	33.2	74	25.8	0	1	270	0.00	29.897 
23:15	33.1	33.1	33.1	75	26.1	0	2	270	0.00	29.899 
23:20	33.1	33.1	33.1	75	26.1	0	2	270	0.00	29.901 
23:25	32.9	32.9	32.9	75	25.9	0	2	270	0.00	29.902 
23:30	32.9	32.9	32.9	75	25.9	0	1	270	0.00	29.905 
23:35	32.7	32.7	32.7	76	26.0	0	1	270	0.00	29.908 
23:40	32.7	32.7	32.7	76	26.0	0	1	270	0.00	29.910 
23:45	32.4	32.4	32.4	76	25.7	0	1	270	0.00	29.911 
23:50	32.2	32.2	32.2	76	25.5	0	0	---	0.00	29.913 
23:55	31.9	31.9	31.9	77	25.5	0	1	270	0.00	29.914 

CoCoRaHS
IN-AL-39
A2 Web Hosting
Creative Commons License
GoDaddy
Look for:

loaded 2017-10-19 12:19:09 • last modified 2010-11-18 10:43:29
Privacy PolicyDisclaimer
• wx.awcolley.com is powered by PmWiki v.2002016 •
• all content (unless otherwise noted) © 2017 A W Colley